Kekaha, HI

8:12 AM HST on December 25, 2014 (GMT -1000)
Kalaeloa (John Rodgers Field) | Change Station
CLOSE
Current Station
Airport
Location: Kalaeloa,
Elevation: 49 ft
Nearby Weather Stations
Active Advisory: High Surf Advisory

Elev 49 ft 21.31 °N, 158.07 °W | Updated 19 minutes ago

Clear
Clear
63 °F
Feels Like 63 °F
N
4
Wind Variable Wind from NE

Today
High -- | Low -- °F
--% Chance of Precip.
Yesterday
High -- | Low -- °F
Precip. -- in
7:15 AM 6:03 PM
Waxing Crescent, 18% visible
Pressure 29.83 in
Visibility 10.0 miles
Clouds Clear
Dew Point 60 °F
Humidity 90%
Rainfall 0.00 in
Snow Depth Not available.
UV 0 out of 12
Pollen Not available.
Air Quality Not available.
Flu Activity Not available.
METAR PHJR 251753Z 04003KT 10SM CLR 17/16 A2981 RMK AO2 SLP100 T01720156 10172 20156 53016

More Conditions Fewer Conditions

Pressure 29.83 in
Visibility 10.0 miles
Clouds Clear
Dew Point 60 °F
Humidity 90%
Rainfall 0.00 in
Snow Depth Not available.
UV 0 out of 12
Pollen Not available.
Air Quality Not available.
Flu Activity Not available.
METAR PHJR 251753Z 04003KT 10SM CLR 17/16 A2981 RMK AO2 SLP100 T01720156 10172 20156 53016

More Conditions Fewer Conditions

10-Day Weather Forecast

Almanac

Astronomy

Dec. 25, 2014 Rise Set
Actual Time
Civil Twilight
Nautical Twilight
Astronomical Twilight
Moon
Length of Visible Light
Length of Day
Tomorrow will be .
, % of the Moon is Illuminated

Today's Extremes

State Highs State Lows

Community

WunderPhotos

Upload Photos

1,780,353 photos uploaded!

WunderBlogs® & News

Nearby

Air Quality

  Air Quality AQ Index Pollutant
Not available.

Snow Depth

Station Depth Elevation

Earthquake Activity

City Distance Mag. Time & Date
Minimum magnitude displayed is 2.5.

Coastal Water Temperatures

Place Temperature

Nearby Weather Stations